sensor_id;sensor_type;location;lat;lon;timestamp;temperature;humidity
65985;HTU21D;52748;51.112;5.880;2023-06-14T00:01:45;27.54;33.39
65985;HTU21D;52748;51.112;5.880;2023-06-14T00:04:12;27.53;33.39
65985;HTU21D;52748;51.112;5.880;2023-06-14T00:06:39;27.52;33.48
65985;HTU21D;52748;51.112;5.880;2023-06-14T00:09:05;27.50;33.56
65985;HTU21D;52748;51.112;5.880;2023-06-14T00:11:31;27.47;33.66
65985;HTU21D;52748;51.112;5.880;2023-06-14T00:13:57;27.45;33.54
65985;HTU21D;52748;51.112;5.880;2023-06-14T00:16:23;27.45;33.56
65985;HTU21D;52748;51.112;5.880;2023-06-14T00:18:50;27.46;33.45
65985;HTU21D;52748;51.112;5.880;2023-06-14T00:21:17;27.45;33.52
65985;HTU21D;52748;51.112;5.880;2023-06-14T00:23:43;27.44;33.51
65985;HTU21D;52748;51.112;5.880;2023-06-14T00:26:09;27.42;33.58
65985;HTU21D;52748;51.112;5.880;2023-06-14T00:28:36;27.39;33.69
65985;HTU21D;52748;51.112;5.880;2023-06-14T00:31:01;27.39;33.70
65985;HTU21D;52748;51.112;5.880;2023-06-14T00:33:28;27.37;33.79
65985;HTU21D;52748;51.112;5.880;2023-06-14T00:35:53;27.36;33.81
65985;HTU21D;52748;51.112;5.880;2023-06-14T00:38:20;27.32;33.83
65985;HTU21D;52748;51.112;5.880;2023-06-14T00:40:46;27.31;34.02
65985;HTU21D;52748;51.112;5.880;2023-06-14T00:43:13;27.30;33.96
65985;HTU21D;52748;51.112;5.880;2023-06-14T00:45:38;27.29;33.96
65985;HTU21D;52748;51.112;5.880;2023-06-14T00:48:05;27.27;33.91
65985;HTU21D;52748;51.112;5.880;2023-06-14T00:50:33;27.26;33.90
65985;HTU21D;52748;51.112;5.880;2023-06-14T00:53:00;27.27;34.00
65985;HTU21D;52748;51.112;5.880;2023-06-14T00:55:27;27.29;33.85
65985;HTU21D;52748;51.112;5.880;2023-06-14T00:57:56;27.27;33.91
65985;HTU21D;52748;51.112;5.880;2023-06-14T01:00:22;27.25;34.00
65985;HTU21D;52748;51.112;5.880;2023-06-14T01:02:48;27.25;34.04
65985;HTU21D;52748;51.112;5.880;2023-06-14T01:05:16;27.23;34.02
65985;HTU21D;52748;51.112;5.880;2023-06-14T01:10:30;27.24;34.16
65985;HTU21D;52748;51.112;5.880;2023-06-14T01:13:20;27.21;34.29
65985;HTU21D;52748;51.112;5.880;2023-06-14T01:15:47;27.19;34.33
65985;HTU21D;52748;51.112;5.880;2023-06-14T01:18:15;27.17;34.38
65985;HTU21D;52748;51.112;5.880;2023-06-14T01:20:45;27.19;34.39
65985;HTU21D;52748;51.112;5.880;2023-06-14T01:23:19;27.15;34.39
65985;HTU21D;52748;51.112;5.880;2023-06-14T01:25:46;27.12;34.44
65985;HTU21D;52748;51.112;5.880;2023-06-14T01:28:15;27.12;34.48
65985;HTU21D;52748;51.112;5.880;2023-06-14T01:30:44;27.11;34.57
65985;HTU21D;52748;51.112;5.880;2023-06-14T01:33:16;27.17;34.42
65985;HTU21D;52748;51.112;5.880;2023-06-14T01:35:51;27.14;34.37
65985;HTU21D;52748;51.112;5.880;2023-06-14T01:38:20;27.10;34.47
65985;HTU21D;52748;51.112;5.880;2023-06-14T01:40:48;27.11;34.47
65985;HTU21D;52748;51.112;5.880;2023-06-14T01:43:15;27.11;34.47
65985;HTU21D;52748;51.112;5.880;2023-06-14T01:45:46;27.08;34.45
65985;HTU21D;52748;51.112;5.880;2023-06-14T01:48:13;27.07;34.51
65985;HTU21D;52748;51.112;5.880;2023-06-14T01:50:39;27.06;34.60
65985;HTU21D;52748;51.112;5.880;2023-06-14T01:53:07;27.02;34.64
65985;HTU21D;52748;51.112;5.880;2023-06-14T01:55:37;27.02;34.66
65985;HTU21D;52748;51.112;5.880;2023-06-14T01:58:06;26.99;34.65
65985;HTU21D;52748;51.112;5.880;2023-06-14T02:00:32;26.98;34.72
65985;HTU21D;52748;51.112;5.880;2023-06-14T02:02:58;26.98;34.66
65985;HTU21D;52748;51.112;5.880;2023-06-14T02:05:26;26.96;34.59
65985;HTU21D;52748;51.112;5.880;2023-06-14T02:07:52;26.94;34.57
65985;HTU21D;52748;51.112;5.880;2023-06-14T02:10:21;26.97;34.51
65985;HTU21D;52748;51.112;5.880;2023-06-14T02:12:47;26.99;34.42
65985;HTU21D;52748;51.112;5.880;2023-06-14T02:15:13;26.99;34.43
65985;HTU21D;52748;51.112;5.880;2023-06-14T02:17:46;26.98;34.34
65985;HTU21D;52748;51.112;5.880;2023-06-14T02:20:16;26.97;34.28
65985;HTU21D;52748;51.112;5.880;2023-06-14T02:22:42;26.99;34.29
65985;HTU21D;52748;51.112;5.880;2023-06-14T02:25:08;26.94;34.34
65985;HTU21D;52748;51.112;5.880;2023-06-14T02:27:35;26.92;34.41
65985;HTU21D;52748;51.112;5.880;2023-06-14T02:30:03;26.90;34.48
65985;HTU21D;52748;51.112;5.880;2023-06-14T02:32:32;26.87;34.44
65985;HTU21D;52748;51.112;5.880;2023-06-14T02:34:59;26.87;34.50
65985;HTU21D;52748;51.112;5.880;2023-06-14T02:37:25;26.87;34.43
65985;HTU21D;52748;51.112;5.880;2023-06-14T02:39:52;26.87;34.44
65985;HTU21D;52748;51.112;5.880;2023-06-14T02:42:18;26.84;34.47
65985;HTU21D;52748;51.112;5.880;2023-06-14T02:44:44;26.84;34.53
65985;HTU21D;52748;51.112;5.880;2023-06-14T02:47:12;26.85;34.52
65985;HTU21D;52748;51.112;5.880;2023-06-14T02:49:37;26.85;34.48
65985;HTU21D;52748;51.112;5.880;2023-06-14T02:52:03;26.82;34.58
65985;HTU21D;52748;51.112;5.880;2023-06-14T02:54:30;26.82;34.58
65985;HTU21D;52748;51.112;5.880;2023-06-14T02:56:58;26.82;34.60
65985;HTU21D;52748;51.112;5.880;2023-06-14T02:59:24;26.79;34.64
65985;HTU21D;52748;51.112;5.880;2023-06-14T03:01:52;26.77;34.66
65985;HTU21D;52748;51.112;5.880;2023-06-14T03:04:18;26.76;34.65
65985;HTU21D;52748;51.112;5.880;2023-06-14T03:06:45;26.76;34.66
65985;HTU21D;52748;51.112;5.880;2023-06-14T03:09:16;26.75;34.68
65985;HTU21D;52748;51.112;5.880;2023-06-14T03:11:42;26.73;34.70
65985;HTU21D;52748;51.112;5.880;2023-06-14T03:14:09;26.75;34.65
65985;HTU21D;52748;51.112;5.880;2023-06-14T03:16:37;26.75;34.56
65985;HTU21D;52748;51.112;5.880;2023-06-14T03:19:04;26.71;34.65
65985;HTU21D;52748;51.112;5.880;2023-06-14T03:21:31;26.70;34.76
65985;HTU21D;52748;51.112;5.880;2023-06-14T03:23:59;26.71;34.80
65985;HTU21D;52748;51.112;5.880;2023-06-14T03:26:25;26.69;34.85
65985;HTU21D;52748;51.112;5.880;2023-06-14T03:28:53;26.68;34.86
65985;HTU21D;52748;51.112;5.880;2023-06-14T03:31:21;26.68;34.89
65985;HTU21D;52748;51.112;5.880;2023-06-14T03:33:47;26.68;34.82
65985;HTU21D;52748;51.112;5.880;2023-06-14T03:36:14;26.66;34.88
65985;HTU21D;52748;51.112;5.880;2023-06-14T03:38:40;26.65;34.90
65985;HTU21D;52748;51.112;5.880;2023-06-14T03:41:06;26.65;34.93
65985;HTU21D;52748;51.112;5.880;2023-06-14T03:43:32;26.66;34.85
65985;HTU21D;52748;51.112;5.880;2023-06-14T03:45:59;26.66;34.82
65985;HTU21D;52748;51.112;5.880;2023-06-14T03:48:27;26.68;34.84
65985;HTU21D;52748;51.112;5.880;2023-06-14T03:50:53;26.66;34.91
65985;HTU21D;52748;51.112;5.880;2023-06-14T03:53:20;26.65;34.96
65985;HTU21D;52748;51.112;5.880;2023-06-14T03:55:50;26.63;35.03
65985;HTU21D;52748;51.112;5.880;2023-06-14T03:58:18;26.65;35.09
65985;HTU21D;52748;51.112;5.880;2023-06-14T04:00:45;26.65;35.05
65985;HTU21D;52748;51.112;5.880;2023-06-14T04:03:11;26.65;35.05
65985;HTU21D;52748;51.112;5.880;2023-06-14T04:05:39;26.67;35.08
65985;HTU21D;52748;51.112;5.880;2023-06-14T04:08:08;26.62;35.18
65985;HTU21D;52748;51.112;5.880;2023-06-14T04:10:40;26.60;35.36
65985;HTU21D;52748;51.112;5.880;2023-06-14T04:13:07;26.58;35.55
65985;HTU21D;52748;51.112;5.880;2023-06-14T04:15:33;26.56;35.55
65985;HTU21D;52748;51.112;5.880;2023-06-14T04:18:00;26.56;35.58
65985;HTU21D;52748;51.112;5.880;2023-06-14T04:20:26;26.56;35.66
65985;HTU21D;52748;51.112;5.880;2023-06-14T04:22:52;26.55;35.75
65985;HTU21D;52748;51.112;5.880;2023-06-14T04:25:18;26.54;35.83
65985;HTU21D;52748;51.112;5.880;2023-06-14T04:27:44;26.54;35.91
65985;HTU21D;52748;51.112;5.880;2023-06-14T04:30:10;26.53;35.97
65985;HTU21D;52748;51.112;5.880;2023-06-14T04:32:41;26.53;35.95
65985;HTU21D;52748;51.112;5.880;2023-06-14T04:35:10;26.52;36.02
65985;HTU21D;52748;51.112;5.880;2023-06-14T04:37:38;26.55;36.01
65985;HTU21D;52748;51.112;5.880;2023-06-14T04:40:07;26.56;35.97
65985;HTU21D;52748;51.112;5.880;2023-06-14T04:42:35;26.53;36.05
65985;HTU21D;52748;51.112;5.880;2023-06-14T04:45:04;26.53;36.08
65985;HTU21D;52748;51.112;5.880;2023-06-14T04:47:30;26.53;36.14
65985;HTU21D;52748;51.112;5.880;2023-06-14T04:49:57;26.54;36.13
65985;HTU21D;52748;51.112;5.880;2023-06-14T04:52:23;26.52;36.18
65985;HTU21D;52748;51.112;5.880;2023-06-14T04:54:52;26.52;36.24
65985;HTU21D;52748;51.112;5.880;2023-06-14T04:57:20;26.51;36.29
65985;HTU21D;52748;51.112;5.880;2023-06-14T04:59:49;26.52;36.36
65985;HTU21D;52748;51.112;5.880;2023-06-14T05:02:24;26.51;36.43
65985;HTU21D;52748;51.112;5.880;2023-06-14T05:04:51;26.53;36.47
65985;HTU21D;52748;51.112;5.880;2023-06-14T05:07:17;26.55;36.46
65985;HTU21D;52748;51.112;5.880;2023-06-14T05:09:44;26.57;36.40
65985;HTU21D;52748;51.112;5.880;2023-06-14T05:12:12;26.58;36.40
65985;HTU21D;52748;51.112;5.880;2023-06-14T05:14:37;26.56;36.46
65985;HTU21D;52748;51.112;5.880;2023-06-14T05:17:05;26.56;36.51
65985;HTU21D;52748;51.112;5.880;2023-06-14T05:19:31;26.54;36.61
65985;HTU21D;52748;51.112;5.880;2023-06-14T05:21:57;26.55;36.53
65985;HTU21D;52748;51.112;5.880;2023-06-14T05:24:24;26.52;36.76
65985;HTU21D;52748;51.112;5.880;2023-06-14T05:26:50;26.38;37.33
65985;HTU21D;52748;51.112;5.880;2023-06-14T05:29:16;26.19;37.72
65985;HTU21D;52748;51.112;5.880;2023-06-14T05:31:42;25.96;38.30
65985;HTU21D;52748;51.112;5.880;2023-06-14T05:34:08;25.87;38.88
65985;HTU21D;52748;51.112;5.880;2023-06-14T05:36:34;25.81;39.13
65985;HTU21D;52748;51.112;5.880;2023-06-14T05:39:05;25.75;38.89
65985;HTU21D;52748;51.112;5.880;2023-06-14T05:41:34;25.67;39.20
65985;HTU21D;52748;51.112;5.880;2023-06-14T05:43:59;25.61;39.49
65985;HTU21D;52748;51.112;5.880;2023-06-14T05:46:26;25.54;39.26
65985;HTU21D;52748;51.112;5.880;2023-06-14T05:48:52;25.51;39.11
65985;HTU21D;52748;51.112;5.880;2023-06-14T05:51:18;25.50;39.27
65985;HTU21D;52748;51.112;5.880;2023-06-14T05:53:50;25.52;39.47
65985;HTU21D;52748;51.112;5.880;2023-06-14T05:56:18;25.58;39.12
65985;HTU21D;52748;51.112;5.880;2023-06-14T05:58:44;25.60;38.73
65985;HTU21D;52748;51.112;5.880;2023-06-14T06:01:10;25.65;38.64
65985;HTU21D;52748;51.112;5.880;2023-06-14T06:03:36;25.68;39.00
65985;HTU21D;52748;51.112;5.880;2023-06-14T06:06:02;25.79;39.39
65985;HTU21D;52748;51.112;5.880;2023-06-14T06:08:29;25.99;39.36
65985;HTU21D;52748;51.112;5.880;2023-06-14T06:10:56;26.17;39.27
65985;HTU21D;52748;51.112;5.880;2023-06-14T06:13:22;26.33;39.42
65985;HTU21D;52748;51.112;5.880;2023-06-14T06:15:48;26.49;39.44
65985;HTU21D;52748;51.112;5.880;2023-06-14T06:18:14;26.65;39.45
65985;HTU21D;52748;51.112;5.880;2023-06-14T06:20:40;26.82;39.48
65985;HTU21D;52748;51.112;5.880;2023-06-14T06:23:06;26.93;39.51
65985;HTU21D;52748;51.112;5.880;2023-06-14T06:25:33;27.06;39.67
65985;HTU21D;52748;51.112;5.880;2023-06-14T06:27:59;27.22;39.77
65985;HTU21D;52748;51.112;5.880;2023-06-14T06:30:25;27.34;39.89
65985;HTU21D;52748;51.112;5.880;2023-06-14T06:32:52;27.43;40.04
65985;HTU21D;52748;51.112;5.880;2023-06-14T06:35:18;27.52;40.19
65985;HTU21D;52748;51.112;5.880;2023-06-14T06:37:44;27.60;40.29
65985;HTU21D;52748;51.112;5.880;2023-06-14T06:40:10;27.70;40.36
65985;HTU21D;52748;51.112;5.880;2023-06-14T06:42:36;27.75;40.47
65985;HTU21D;52748;51.112;5.880;2023-06-14T06:45:04;27.82;40.62
65985;HTU21D;52748;51.112;5.880;2023-06-14T06:47:31;27.86;40.73
65985;HTU21D;52748;51.112;5.880;2023-06-14T06:49:57;27.93;40.82
65985;HTU21D;52748;51.112;5.880;2023-06-14T06:52:23;27.98;40.88
65985;HTU21D;52748;51.112;5.880;2023-06-14T06:54:49;28.02;41.00
65985;HTU21D;52748;51.112;5.880;2023-06-14T06:57:16;28.09;41.06
65985;HTU21D;52748;51.112;5.880;2023-06-14T06:59:41;28.11;41.16
65985;HTU21D;52748;51.112;5.880;2023-06-14T07:02:07;28.12;41.14
65985;HTU21D;52748;51.112;5.880;2023-06-14T07:04:33;28.14;37.00
65985;HTU21D;52748;51.112;5.880;2023-06-14T07:06:59;28.04;34.85
65985;HTU21D;52748;51.112;5.880;2023-06-14T07:09:25;27.99;34.05
65985;HTU21D;52748;51.112;5.880;2023-06-14T07:11:51;27.96;33.44
65985;HTU21D;52748;51.112;5.880;2023-06-14T07:14:17;27.90;33.31
65985;HTU21D;52748;51.112;5.880;2023-06-14T07:16:43;27.83;33.23
65985;HTU21D;52748;51.112;5.880;2023-06-14T07:19:09;27.79;33.18
65985;HTU21D;52748;51.112;5.880;2023-06-14T07:21:36;27.74;34.06
65985;HTU21D;52748;51.112;5.880;2023-06-14T07:24:05;27.71;34.92
65985;HTU21D;52748;51.112;5.880;2023-06-14T07:26:32;27.71;35.25
65985;HTU21D;52748;51.112;5.880;2023-06-14T07:28:58;27.70;35.62
65985;HTU21D;52748;51.112;5.880;2023-06-14T07:31:24;27.67;35.89
65985;HTU21D;52748;51.112;5.880;2023-06-14T07:33:50;27.70;35.97
65985;HTU21D;52748;51.112;5.880;2023-06-14T07:36:15;27.66;36.21
65985;HTU21D;52748;51.112;5.880;2023-06-14T07:38:43;27.69;36.34
65985;HTU21D;52748;51.112;5.880;2023-06-14T07:41:09;27.70;36.42
65985;HTU21D;52748;51.112;5.880;2023-06-14T07:43:35;27.71;36.47
65985;HTU21D;52748;51.112;5.880;2023-06-14T07:46:01;27.68;36.71
65985;HTU21D;52748;51.112;5.880;2023-06-14T07:48:28;27.67;36.82
65985;HTU21D;52748;51.112;5.880;2023-06-14T07:50:53;27.69;37.04
65985;HTU21D;52748;51.112;5.880;2023-06-14T07:53:19;27.69;37.11
65985;HTU21D;52748;51.112;5.880;2023-06-14T07:55:45;27.71;37.06
65985;HTU21D;52748;51.112;5.880;2023-06-14T07:58:12;27.72;37.27
65985;HTU21D;52748;51.112;5.880;2023-06-14T08:00:38;27.70;37.29
65985;HTU21D;52748;51.112;5.880;2023-06-14T08:03:04;27.69;37.56
65985;HTU21D;52748;51.112;5.880;2023-06-14T08:05:30;27.69;37.51
65985;HTU21D;52748;51.112;5.880;2023-06-14T08:07:56;27.67;37.62
65985;HTU21D;52748;51.112;5.880;2023-06-14T08:10:22;27.69;37.69
65985;HTU21D;52748;51.112;5.880;2023-06-14T08:12:48;27.71;37.59
65985;HTU21D;52748;51.112;5.880;2023-06-14T08:15:16;27.71;37.54
65985;HTU21D;52748;51.112;5.880;2023-06-14T08:17:43;27.71;37.71
65985;HTU21D;52748;51.112;5.880;2023-06-14T08:20:09;27.70;37.69
65985;HTU21D;52748;51.112;5.880;2023-06-14T08:22:36;27.72;37.70
65985;HTU21D;52748;51.112;5.880;2023-06-14T08:25:03;27.75;37.76
65985;HTU21D;52748;51.112;5.880;2023-06-14T08:27:30;27.72;37.95
65985;HTU21D;52748;51.112;5.880;2023-06-14T08:29:55;27.73;38.07
65985;HTU21D;52748;51.112;5.880;2023-06-14T08:32:22;27.73;37.79
65985;HTU21D;52748;51.112;5.880;2023-06-14T08:34:48;27.72;35.84
65985;HTU21D;52748;51.112;5.880;2023-06-14T08:37:13;27.71;35.12
65985;HTU21D;52748;51.112;5.880;2023-06-14T08:39:39;27.73;34.23
65985;HTU21D;52748;51.112;5.880;2023-06-14T08:42:07;27.75;33.08
65985;HTU21D;52748;51.112;5.880;2023-06-14T08:44:34;27.79;32.29
65985;HTU21D;52748;51.112;5.880;2023-06-14T08:47:00;27.83;31.93
65985;HTU21D;52748;51.112;5.880;2023-06-14T08:49:26;27.84;31.90
65985;HTU21D;52748;51.112;5.880;2023-06-14T08:51:59;27.86;32.67
65985;HTU21D;52748;51.112;5.880;2023-06-14T08:54:29;27.88;32.20
65985;HTU21D;52748;51.112;5.880;2023-06-14T08:57:02;27.87;31.49
65985;HTU21D;52748;51.112;5.880;2023-06-14T08:59:29;27.88;32.01
65985;HTU21D;52748;51.112;5.880;2023-06-14T09:01:59;27.89;32.54
65985;HTU21D;52748;51.112;5.880;2023-06-14T09:04:25;27.90;32.90
65985;HTU21D;52748;51.112;5.880;2023-06-14T09:06:56;27.89;32.06
65985;HTU21D;52748;51.112;5.880;2023-06-14T09:09:22;27.89;32.04
65985;HTU21D;52748;51.112;5.880;2023-06-14T09:11:50;27.90;31.09
65985;HTU21D;52748;51.112;5.880;2023-06-14T09:14:17;27.93;31.60
65985;HTU21D;52748;51.112;5.880;2023-06-14T09:16:43;27.94;31.05
65985;HTU21D;52748;51.112;5.880;2023-06-14T09:19:14;27.96;30.90
65985;HTU21D;52748;51.112;5.880;2023-06-14T09:21:47;27.94;31.36
65985;HTU21D;52748;51.112;5.880;2023-06-14T09:24:14;27.93;31.41
65985;HTU21D;52748;51.112;5.880;2023-06-14T09:26:41;27.91;30.74
65985;HTU21D;52748;51.112;5.880;2023-06-14T09:29:07;27.93;29.84
65985;HTU21D;52748;51.112;5.880;2023-06-14T09:31:32;27.96;29.54
65985;HTU21D;52748;51.112;5.880;2023-06-14T09:34:02;27.97;29.84
65985;HTU21D;52748;51.112;5.880;2023-06-14T09:36:31;27.98;29.11
65985;HTU21D;52748;51.112;5.880;2023-06-14T09:38:59;28.00;29.39
65985;HTU21D;52748;51.112;5.880;2023-06-14T09:41:41;27.97;30.85
65985;HTU21D;52748;51.112;5.880;2023-06-14T09:44:10;27.95;31.10
65985;HTU21D;52748;51.112;5.880;2023-06-14T09:46:37;27.91;30.09
65985;HTU21D;52748;51.112;5.880;2023-06-14T09:49:05;27.89;29.19
65985;HTU21D;52748;51.112;5.880;2023-06-14T09:51:31;27.89;28.23
65985;HTU21D;52748;51.112;5.880;2023-06-14T09:54:00;27.90;28.27
65985;HTU21D;52748;51.112;5.880;2023-06-14T09:56:28;27.88;28.73
65985;HTU21D;52748;51.112;5.880;2023-06-14T09:58:59;27.90;27.55
65985;HTU21D;52748;51.112;5.880;2023-06-14T10:01:28;27.90;27.81
65985;HTU21D;52748;51.112;5.880;2023-06-14T10:04:03;27.90;27.94
65985;HTU21D;52748;51.112;5.880;2023-06-14T10:06:31;27.88;27.91
65985;HTU21D;52748;51.112;5.880;2023-06-14T10:08:59;27.85;27.91
65985;HTU21D;52748;51.112;5.880;2023-06-14T10:11:26;27.84;26.84
65985;HTU21D;52748;51.112;5.880;2023-06-14T10:13:57;27.82;26.35
65985;HTU21D;52748;51.112;5.880;2023-06-14T10:16:34;27.84;27.04
65985;HTU21D;52748;51.112;5.880;2023-06-14T10:19:25;27.86;26.43
65985;HTU21D;52748;51.112;5.880;2023-06-14T10:22:17;27.87;26.59
65985;HTU21D;52748;51.112;5.880;2023-06-14T10:24:45;27.87;26.52
65985;HTU21D;52748;51.112;5.880;2023-06-14T10:27:14;27.91;27.32
65985;HTU21D;52748;51.112;5.880;2023-06-14T10:32:22;27.97;25.65
65985;HTU21D;52748;51.112;5.880;2023-06-14T10:34:56;27.98;25.61
65985;HTU21D;52748;51.112;5.880;2023-06-14T10:37:23;27.99;26.42
65985;HTU21D;52748;51.112;5.880;2023-06-14T10:39:50;27.98;26.26
65985;HTU21D;52748;51.112;5.880;2023-06-14T10:42:17;27.99;26.54
65985;HTU21D;52748;51.112;5.880;2023-06-14T10:44:50;27.99;27.13
65985;HTU21D;52748;51.112;5.880;2023-06-14T10:50:14;28.05;28.17
65985;HTU21D;52748;51.112;5.880;2023-06-14T10:52:42;28.06;28.43
65985;HTU21D;52748;51.112;5.880;2023-06-14T10:55:18;28.06;27.55
65985;HTU21D;52748;51.112;5.880;2023-06-14T10:57:53;28.10;27.51
65985;HTU21D;52748;51.112;5.880;2023-06-14T11:00:29;28.14;28.06
65985;HTU21D;52748;51.112;5.880;2023-06-14T11:05:25;28.13;26.39
65985;HTU21D;52748;51.112;5.880;2023-06-14T11:10:40;28.18;26.79
65985;HTU21D;52748;51.112;5.880;2023-06-14T11:13:07;28.18;26.93
65985;HTU21D;52748;51.112;5.880;2023-06-14T11:15:36;28.18;26.66
65985;HTU21D;52748;51.112;5.880;2023-06-14T11:18:04;28.19;26.52
65985;HTU21D;52748;51.112;5.880;2023-06-14T11:20:34;28.20;26.46
65985;HTU21D;52748;51.112;5.880;2023-06-14T11:23:00;28.18;27.91
65985;HTU21D;52748;51.112;5.880;2023-06-14T11:25:26;28.17;28.77
65985;HTU21D;52748;51.112;5.880;2023-06-14T11:27:54;28.16;28.66
65985;HTU21D;52748;51.112;5.880;2023-06-14T11:30:21;28.19;28.78
65985;HTU21D;52748;51.112;5.880;2023-06-14T11:32:52;28.23;29.06
65985;HTU21D;52748;51.112;5.880;2023-06-14T11:35:21;28.19;29.09
65985;HTU21D;52748;51.112;5.880;2023-06-14T11:37:52;28.18;30.18
65985;HTU21D;52748;51.112;5.880;2023-06-14T11:40:18;28.16;30.96
65985;HTU21D;52748;51.112;5.880;2023-06-14T11:42:44;28.15;31.51
65985;HTU21D;52748;51.112;5.880;2023-06-14T11:45:11;28.15;31.61
65985;HTU21D;52748;51.112;5.880;2023-06-14T11:47:39;28.15;31.75
65985;HTU21D;52748;51.112;5.880;2023-06-14T11:50:07;28.10;31.90
65985;HTU21D;52748;51.112;5.880;2023-06-14T11:52:35;28.08;32.13
65985;HTU21D;52748;51.112;5.880;2023-06-14T11:55:02;28.04;32.33
65985;HTU21D;52748;51.112;5.880;2023-06-14T11:57:34;28.03;32.93
65985;HTU21D;52748;51.112;5.880;2023-06-14T12:00:03;28.03;33.54
65985;HTU21D;52748;51.112;5.880;2023-06-14T12:02:37;28.06;33.93
65985;HTU21D;52748;51.112;5.880;2023-06-14T12:05:05;28.05;34.25
65985;HTU21D;52748;51.112;5.880;2023-06-14T12:07:37;28.05;34.50
65985;HTU21D;52748;51.112;5.880;2023-06-14T12:10:09;28.02;34.68
65985;HTU21D;52748;51.112;5.880;2023-06-14T12:12:38;28.01;34.95
65985;HTU21D;52748;51.112;5.880;2023-06-14T12:15:06;28.05;35.10
65985;HTU21D;52748;51.112;5.880;2023-06-14T12:17:36;28.05;35.21
65985;HTU21D;52748;51.112;5.880;2023-06-14T12:20:12;28.03;35.37
65985;HTU21D;52748;51.112;5.880;2023-06-14T12:22:56;28.01;35.55
65985;HTU21D;52748;51.112;5.880;2023-06-14T12:25:33;28.01;35.76
65985;HTU21D;52748;51.112;5.880;2023-06-14T12:28:09;28.00;35.92
65985;HTU21D;52748;51.112;5.880;2023-06-14T12:30:36;28.00;36.02
65985;HTU21D;52748;51.112;5.880;2023-06-14T12:33:03;28.00;36.12
65985;HTU21D;52748;51.112;5.880;2023-06-14T12:35:29;28.00;36.24
65985;HTU21D;52748;51.112;5.880;2023-06-14T12:37:55;28.00;36.30
65985;HTU21D;52748;51.112;5.880;2023-06-14T12:40:22;28.01;36.34
65985;HTU21D;52748;51.112;5.880;2023-06-14T12:42:48;28.01;36.43
65985;HTU21D;52748;51.112;5.880;2023-06-14T12:45:14;28.02;36.56
65985;HTU21D;52748;51.112;5.880;2023-06-14T12:47:40;28.05;36.61
65985;HTU21D;52748;51.112;5.880;2023-06-14T12:50:06;28.06;36.66
65985;HTU21D;52748;51.112;5.880;2023-06-14T12:52:32;28.04;36.79
65985;HTU21D;52748;51.112;5.880;2023-06-14T12:55:07;28.08;36.73
65985;HTU21D;52748;51.112;5.880;2023-06-14T12:57:33;28.08;36.79
65985;HTU21D;52748;51.112;5.880;2023-06-14T13:00:02;28.05;37.03
65985;HTU21D;52748;51.112;5.880;2023-06-14T13:02:28;28.03;37.06
65985;HTU21D;52748;51.112;5.880;2023-06-14T13:04:54;28.03;36.96
65985;HTU21D;52748;51.112;5.880;2023-06-14T13:07:20;28.00;36.16
65985;HTU21D;52748;51.112;5.880;2023-06-14T13:09:46;27.98;35.88
65985;HTU21D;52748;51.112;5.880;2023-06-14T13:12:12;27.98;36.03
65985;HTU21D;52748;51.112;5.880;2023-06-14T13:14:41;27.97;35.95
65985;HTU21D;52748;51.112;5.880;2023-06-14T13:17:10;27.97;35.91
65985;HTU21D;52748;51.112;5.880;2023-06-14T13:19:37;27.97;36.03
65985;HTU21D;52748;51.112;5.880;2023-06-14T13:22:03;27.96;36.14
65985;HTU21D;52748;51.112;5.880;2023-06-14T13:24:29;27.94;36.11
65985;HTU21D;52748;51.112;5.880;2023-06-14T13:26:56;27.90;34.13
65985;HTU21D;52748;51.112;5.880;2023-06-14T13:29:24;27.89;32.50
65985;HTU21D;52748;51.112;5.880;2023-06-14T13:31:50;27.88;31.41
65985;HTU21D;52748;51.112;5.880;2023-06-14T13:34:16;27.90;31.30
65985;HTU21D;52748;51.112;5.880;2023-06-14T13:36:42;27.88;30.57
65985;HTU21D;52748;51.112;5.880;2023-06-14T13:39:08;27.88;29.91
65985;HTU21D;52748;51.112;5.880;2023-06-14T13:41:33;27.91;30.16
65985;HTU21D;52748;51.112;5.880;2023-06-14T13:44:01;27.93;30.13
65985;HTU21D;52748;51.112;5.880;2023-06-14T13:46:30;27.93;29.74
65985;HTU21D;52748;51.112;5.880;2023-06-14T13:48:57;27.94;29.37
65985;HTU21D;52748;51.112;5.880;2023-06-14T13:51:23;27.96;28.82
65985;HTU21D;52748;51.112;5.880;2023-06-14T13:53:50;27.99;28.19
65985;HTU21D;52748;51.112;5.880;2023-06-14T13:56:17;27.99;27.71
65985;HTU21D;52748;51.112;5.880;2023-06-14T13:58:43;28.00;27.11
65985;HTU21D;52748;51.112;5.880;2023-06-14T14:01:09;28.01;27.21
65985;HTU21D;52748;51.112;5.880;2023-06-14T14:03:35;28.02;27.59
65985;HTU21D;52748;51.112;5.880;2023-06-14T14:06:02;28.02;27.81
65985;HTU21D;52748;51.112;5.880;2023-06-14T14:08:28;28.01;27.78
65985;HTU21D;52748;51.112;5.880;2023-06-14T14:10:54;28.02;28.21
65985;HTU21D;52748;51.112;5.880;2023-06-14T14:13:22;28.03;28.63
65985;HTU21D;52748;51.112;5.880;2023-06-14T14:15:48;28.02;28.68
65985;HTU21D;52748;51.112;5.880;2023-06-14T14:18:18;28.02;28.31
65985;HTU21D;52748;51.112;5.880;2023-06-14T14:20:44;28.04;28.38
65985;HTU21D;52748;51.112;5.880;2023-06-14T14:23:09;28.02;28.68
65985;HTU21D;52748;51.112;5.880;2023-06-14T14:25:35;28.03;29.95
65985;HTU21D;52748;51.112;5.880;2023-06-14T14:28:01;28.02;30.54
65985;HTU21D;52748;51.112;5.880;2023-06-14T14:30:27;28.02;29.99
65985;HTU21D;52748;51.112;5.880;2023-06-14T14:32:53;28.02;30.13
65985;HTU21D;52748;51.112;5.880;2023-06-14T14:35:19;28.03;29.69
65985;HTU21D;52748;51.112;5.880;2023-06-14T14:37:45;28.04;29.48
65985;HTU21D;52748;51.112;5.880;2023-06-14T14:40:11;28.03;30.06
65985;HTU21D;52748;51.112;5.880;2023-06-14T14:42:37;28.05;30.24
65985;HTU21D;52748;51.112;5.880;2023-06-14T14:45:03;28.04;30.49
65985;HTU21D;52748;51.112;5.880;2023-06-14T14:47:30;28.05;30.25
65985;HTU21D;52748;51.112;5.880;2023-06-14T14:49:56;28.06;30.31
65985;HTU21D;52748;51.112;5.880;2023-06-14T14:52:21;28.04;30.91
65985;HTU21D;52748;51.112;5.880;2023-06-14T14:54:47;28.08;31.09
65985;HTU21D;52748;51.112;5.880;2023-06-14T14:57:13;28.09;31.15
65985;HTU21D;52748;51.112;5.880;2023-06-14T14:59:39;28.09;31.09
65985;HTU21D;52748;51.112;5.880;2023-06-14T15:02:05;28.11;31.49
65985;HTU21D;52748;51.112;5.880;2023-06-14T15:04:31;28.12;31.98
65985;HTU21D;52748;51.112;5.880;2023-06-14T15:06:57;28.11;32.20
65985;HTU21D;52748;51.112;5.880;2023-06-14T15:09:23;28.11;31.99
65985;HTU21D;52748;51.112;5.880;2023-06-14T15:11:49;28.12;32.54
65985;HTU21D;52748;51.112;5.880;2023-06-14T15:14:15;28.12;32.70
65985;HTU21D;52748;51.112;5.880;2023-06-14T15:16:41;28.13;32.26
65985;HTU21D;52748;51.112;5.880;2023-06-14T15:19:07;28.14;31.86
65985;HTU21D;52748;51.112;5.880;2023-06-14T15:21:32;28.13;31.66
65985;HTU21D;52748;51.112;5.880;2023-06-14T15:23:58;28.13;31.59
65985;HTU21D;52748;51.112;5.880;2023-06-14T15:26:24;28.11;31.15
65985;HTU21D;52748;51.112;5.880;2023-06-14T15:28:50;28.11;31.07
65985;HTU21D;52748;51.112;5.880;2023-06-14T15:31:16;28.12;31.50